sensor_id;sensor_type;location;lat;lon;timestamp;P1;durP1;ratioP1;P2;durP2;ratioP2
75628;SDS011;64213;46.452;16.994;2022-12-18T00:00:10;28.05;;;9.65;;
75628;SDS011;64213;46.452;16.994;2022-12-18T00:03:15;30.73;;;10.75;;
75628;SDS011;64213;46.452;16.994;2022-12-18T00:06:18;19.00;;;7.95;;
75628;SDS011;64213;46.452;16.994;2022-12-18T00:09:21;29.90;;;11.43;;
75628;SDS011;64213;46.452;16.994;2022-12-18T00:12:25;34.88;;;11.07;;
75628;SDS011;64213;46.452;16.994;2022-12-18T00:15:27;34.58;;;11.80;;
75628;SDS011;64213;46.452;16.994;2022-12-18T00:18:29;30.62;;;11.77;;
75628;SDS011;64213;46.452;16.994;2022-12-18T00:21:31;34.10;;;12.52;;
75628;SDS011;64213;46.452;16.994;2022-12-18T00:24:34;25.13;;;10.80;;
75628;SDS011;64213;46.452;16.994;2022-12-18T00:27:37;28.73;;;10.38;;
75628;SDS011;64213;46.452;16.994;2022-12-18T00:30:39;32.00;;;12.00;;
75628;SDS011;64213;46.452;16.994;2022-12-18T00:33:41;33.30;;;12.40;;
75628;SDS011;64213;46.452;16.994;2022-12-18T00:36:43;32.35;;;11.35;;
75628;SDS011;64213;46.452;16.994;2022-12-18T00:39:47;26.93;;;9.40;;
75628;SDS011;64213;46.452;16.994;2022-12-18T00:42:49;34.72;;;12.10;;
75628;SDS011;64213;46.452;16.994;2022-12-18T00:45:58;26.95;;;11.35;;
75628;SDS011;64213;46.452;16.994;2022-12-18T00:49:00;30.70;;;11.85;;
75628;SDS011;64213;46.452;16.994;2022-12-18T00:52:02;29.70;;;10.07;;
75628;SDS011;64213;46.452;16.994;2022-12-18T00:55:04;6.77;;;2.93;;
75628;SDS011;64213;46.452;16.994;2022-12-18T00:58:07;24.95;;;9.45;;
75628;SDS011;64213;46.452;16.994;2022-12-18T01:01:11;25.67;;;8.00;;
75628;SDS011;64213;46.452;16.994;2022-12-18T01:04:13;36.15;;;10.57;;
75628;SDS011;64213;46.452;16.994;2022-12-18T01:07:15;31.73;;;13.35;;
75628;SDS011;64213;46.452;16.994;2022-12-18T01:10:18;34.53;;;8.70;;
75628;SDS011;64213;46.452;16.994;2022-12-18T01:13:20;32.15;;;12.40;;
75628;SDS011;64213;46.452;16.994;2022-12-18T01:16:22;28.10;;;10.68;;
75628;SDS011;64213;46.452;16.994;2022-12-18T01:19:24;23.50;;;7.85;;
75628;SDS011;64213;46.452;16.994;2022-12-18T01:22:27;15.32;;;6.55;;
75628;SDS011;64213;46.452;16.994;2022-12-18T01:25:29;21.60;;;7.27;;
75628;SDS011;64213;46.452;16.994;2022-12-18T01:28:31;23.55;;;9.63;;
75628;SDS011;64213;46.452;16.994;2022-12-18T01:31:33;30.42;;;10.13;;
75628;SDS011;64213;46.452;16.994;2022-12-18T01:34:36;23.85;;;8.43;;
75628;SDS011;64213;46.452;16.994;2022-12-18T01:37:38;28.10;;;9.80;;
75628;SDS011;64213;46.452;16.994;2022-12-18T01:40:41;26.20;;;9.43;;
75628;SDS011;64213;46.452;16.994;2022-12-18T01:46:47;19.65;;;6.60;;
75628;SDS011;64213;46.452;16.994;2022-12-18T01:49:49;21.25;;;7.22;;
75628;SDS011;64213;46.452;16.994;2022-12-18T01:52:56;23.40;;;9.57;;
75628;SDS011;64213;46.452;16.994;2022-12-18T01:56:05;20.53;;;7.90;;
75628;SDS011;64213;46.452;16.994;2022-12-18T01:59:08;21.08;;;8.20;;
75628;SDS011;64213;46.452;16.994;2022-12-18T02:02:13;22.30;;;8.52;;
75628;SDS011;64213;46.452;16.994;2022-12-18T02:05:17;22.30;;;8.65;;
75628;SDS011;64213;46.452;16.994;2022-12-18T02:18:05;29.90;;;9.50;;
75628;SDS011;64213;46.452;16.994;2022-12-18T02:24:30;21.40;;;7.60;;
75628;SDS011;64213;46.452;16.994;2022-12-18T02:27:41;24.60;;;8.63;;
75628;SDS011;64213;46.452;16.994;2022-12-18T02:30:45;16.90;;;5.72;;
75628;SDS011;64213;46.452;16.994;2022-12-18T02:33:51;19.73;;;7.47;;
75628;SDS011;64213;46.452;16.994;2022-12-18T02:36:57;26.00;;;8.15;;
75628;SDS011;64213;46.452;16.994;2022-12-18T02:40:03;23.23;;;7.87;;
75628;SDS011;64213;46.452;16.994;2022-12-18T02:43:07;21.13;;;7.17;;
75628;SDS011;64213;46.452;16.994;2022-12-18T02:46:22;19.12;;;6.70;;
75628;SDS011;64213;46.452;16.994;2022-12-18T02:49:40;22.90;;;8.35;;
75628;SDS011;64213;46.452;16.994;2022-12-18T02:56:15;21.27;;;8.55;;
75628;SDS011;64213;46.452;16.994;2022-12-18T02:59:31;32.27;;;9.57;;
75628;SDS011;64213;46.452;16.994;2022-12-18T03:02:45;34.33;;;10.60;;
75628;SDS011;64213;46.452;16.994;2022-12-18T03:06:45;26.00;;;9.43;;
75628;SDS011;64213;46.452;16.994;2022-12-18T03:09:37;34.63;;;12.90;;
75628;SDS011;64213;46.452;16.994;2022-12-18T03:12:45;30.48;;;9.88;;
75628;SDS011;64213;46.452;16.994;2022-12-18T03:16:11;21.20;;;8.63;;
75628;SDS011;64213;46.452;16.994;2022-12-18T03:19:18;22.95;;;7.43;;
75628;SDS011;64213;46.452;16.994;2022-12-18T03:22:24;14.93;;;5.12;;
75628;SDS011;64213;46.452;16.994;2022-12-18T03:25:30;33.00;;;12.15;;
75628;SDS011;64213;46.452;16.994;2022-12-18T03:28:37;32.45;;;12.32;;
75628;SDS011;64213;46.452;16.994;2022-12-18T03:31:45;31.50;;;10.93;;
75628;SDS011;64213;46.452;16.994;2022-12-18T03:34:51;18.35;;;7.22;;
75628;SDS011;64213;46.452;16.994;2022-12-18T03:37:57;32.63;;;11.27;;
75628;SDS011;64213;46.452;16.994;2022-12-18T03:41:00;31.55;;;10.95;;
75628;SDS011;64213;46.452;16.994;2022-12-18T03:50:49;24.58;;;9.93;;
75628;SDS011;64213;46.452;16.994;2022-12-18T03:53:59;24.67;;;6.95;;
75628;SDS011;64213;46.452;16.994;2022-12-18T03:57:10;27.20;;;9.93;;
75628;SDS011;64213;46.452;16.994;2022-12-18T04:00:17;28.33;;;10.02;;
75628;SDS011;64213;46.452;16.994;2022-12-18T04:03:21;19.70;;;7.07;;
75628;SDS011;64213;46.452;16.994;2022-12-18T04:06:37;23.10;;;7.30;;
75628;SDS011;64213;46.452;16.994;2022-12-18T04:09:41;20.23;;;8.98;;
75628;SDS011;64213;46.452;16.994;2022-12-18T04:12:45;21.85;;;7.93;;
75628;SDS011;64213;46.452;16.994;2022-12-18T04:15:47;20.33;;;8.02;;
75628;SDS011;64213;46.452;16.994;2022-12-18T04:18:50;20.03;;;6.30;;
75628;SDS011;64213;46.452;16.994;2022-12-18T04:21:55;19.02;;;6.82;;
75628;SDS011;64213;46.452;16.994;2022-12-18T04:24:57;22.37;;;8.10;;
75628;SDS011;64213;46.452;16.994;2022-12-18T04:27:59;19.90;;;7.90;;
75628;SDS011;64213;46.452;16.994;2022-12-18T04:31:01;19.37;;;7.43;;
75628;SDS011;64213;46.452;16.994;2022-12-18T04:34:04;22.93;;;7.50;;
75628;SDS011;64213;46.452;16.994;2022-12-18T04:37:06;20.33;;;6.90;;
75628;SDS011;64213;46.452;16.994;2022-12-18T04:40:08;24.12;;;8.27;;
75628;SDS011;64213;46.452;16.994;2022-12-18T04:43:11;16.27;;;5.35;;
75628;SDS011;64213;46.452;16.994;2022-12-18T04:46:13;15.13;;;5.28;;
75628;SDS011;64213;46.452;16.994;2022-12-18T04:49:16;16.93;;;6.87;;
75628;SDS011;64213;46.452;16.994;2022-12-18T04:52:18;17.85;;;6.15;;
75628;SDS011;64213;46.452;16.994;2022-12-18T04:55:20;20.30;;;6.43;;
75628;SDS011;64213;46.452;16.994;2022-12-18T04:58:23;17.62;;;6.07;;
75628;SDS011;64213;46.452;16.994;2022-12-18T05:01:25;13.73;;;5.30;;
75628;SDS011;64213;46.452;16.994;2022-12-18T05:04:35;20.97;;;7.60;;
75628;SDS011;64213;46.452;16.994;2022-12-18T05:07:37;17.55;;;6.62;;
75628;SDS011;64213;46.452;16.994;2022-12-18T05:10:39;17.73;;;5.65;;
75628;SDS011;64213;46.452;16.994;2022-12-18T05:13:42;17.50;;;5.45;;
75628;SDS011;64213;46.452;16.994;2022-12-18T05:16:45;18.42;;;6.55;;
75628;SDS011;64213;46.452;16.994;2022-12-18T05:19:48;9.33;;;2.40;;
75628;SDS011;64213;46.452;16.994;2022-12-18T05:22:50;12.68;;;3.87;;
75628;SDS011;64213;46.452;16.994;2022-12-18T05:25:53;8.60;;;2.67;;
75628;SDS011;64213;46.452;16.994;2022-12-18T05:28:57;14.65;;;5.35;;
75628;SDS011;64213;46.452;16.994;2022-12-18T05:31:59;16.05;;;5.35;;
75628;SDS011;64213;46.452;16.994;2022-12-18T05:35:01;15.33;;;5.83;;
75628;SDS011;64213;46.452;16.994;2022-12-18T05:38:03;17.70;;;5.57;;
75628;SDS011;64213;46.452;16.994;2022-12-18T05:41:06;22.80;;;6.82;;
75628;SDS011;64213;46.452;16.994;2022-12-18T05:44:09;23.38;;;6.35;;
75628;SDS011;64213;46.452;16.994;2022-12-18T05:47:11;17.45;;;6.30;;
75628;SDS011;64213;46.452;16.994;2022-12-18T05:50:13;19.10;;;6.60;;
75628;SDS011;64213;46.452;16.994;2022-12-18T05:53:17;20.58;;;6.03;;
75628;SDS011;64213;46.452;16.994;2022-12-18T05:56:21;19.98;;;6.35;;
75628;SDS011;64213;46.452;16.994;2022-12-18T05:59:24;21.12;;;6.75;;
75628;SDS011;64213;46.452;16.994;2022-12-18T06:02:26;18.17;;;6.72;;
75628;SDS011;64213;46.452;16.994;2022-12-18T06:05:28;19.37;;;6.83;;
75628;SDS011;64213;46.452;16.994;2022-12-18T06:08:30;22.70;;;7.35;;
75628;SDS011;64213;46.452;16.994;2022-12-18T06:11:32;23.58;;;7.65;;
75628;SDS011;64213;46.452;16.994;2022-12-18T06:14:34;20.48;;;8.60;;
75628;SDS011;64213;46.452;16.994;2022-12-18T06:17:36;20.35;;;8.82;;
75628;SDS011;64213;46.452;16.994;2022-12-18T06:20:38;19.57;;;7.60;;
75628;SDS011;64213;46.452;16.994;2022-12-18T06:23:42;27.37;;;9.43;;
75628;SDS011;64213;46.452;16.994;2022-12-18T06:26:45;27.85;;;10.05;;
75628;SDS011;64213;46.452;16.994;2022-12-18T06:29:47;20.10;;;7.75;;
75628;SDS011;64213;46.452;16.994;2022-12-18T06:32:49;22.35;;;8.45;;
75628;SDS011;64213;46.452;16.994;2022-12-18T06:36:04;28.67;;;10.70;;
75628;SDS011;64213;46.452;16.994;2022-12-18T06:39:09;27.90;;;10.93;;
75628;SDS011;64213;46.452;16.994;2022-12-18T06:42:12;28.42;;;10.75;;
75628;SDS011;64213;46.452;16.994;2022-12-18T06:45:14;27.80;;;10.95;;
75628;SDS011;64213;46.452;16.994;2022-12-18T06:48:16;34.20;;;12.50;;
75628;SDS011;64213;46.452;16.994;2022-12-18T06:51:19;31.87;;;12.88;;
75628;SDS011;64213;46.452;16.994;2022-12-18T06:54:22;34.40;;;13.48;;
75628;SDS011;64213;46.452;16.994;2022-12-18T06:57:24;35.42;;;13.70;;
75628;SDS011;64213;46.452;16.994;2022-12-18T07:00:26;33.87;;;12.10;;
75628;SDS011;64213;46.452;16.994;2022-12-18T07:03:29;31.58;;;12.32;;
75628;SDS011;64213;46.452;16.994;2022-12-18T07:06:31;35.13;;;14.43;;
75628;SDS011;64213;46.452;16.994;2022-12-18T07:09:33;42.85;;;16.75;;
75628;SDS011;64213;46.452;16.994;2022-12-18T07:12:35;40.70;;;15.90;;
75628;SDS011;64213;46.452;16.994;2022-12-18T07:15:37;40.05;;;15.02;;
75628;SDS011;64213;46.452;16.994;2022-12-18T07:18:40;37.70;;;14.55;;
75628;SDS011;64213;46.452;16.994;2022-12-18T07:21:42;40.58;;;14.13;;
75628;SDS011;64213;46.452;16.994;2022-12-18T07:24:44;38.30;;;15.00;;
75628;SDS011;64213;46.452;16.994;2022-12-18T07:27:46;44.53;;;16.97;;
75628;SDS011;64213;46.452;16.994;2022-12-18T07:30:48;40.53;;;15.18;;
75628;SDS011;64213;46.452;16.994;2022-12-18T07:33:50;37.92;;;14.70;;
75628;SDS011;64213;46.452;16.994;2022-12-18T07:36:53;31.80;;;14.07;;
75628;SDS011;64213;46.452;16.994;2022-12-18T07:39:55;39.15;;;14.68;;
75628;SDS011;64213;46.452;16.994;2022-12-18T07:42:57;39.70;;;15.27;;
75628;SDS011;64213;46.452;16.994;2022-12-18T07:45:59;45.85;;;14.98;;
75628;SDS011;64213;46.452;16.994;2022-12-18T07:49:02;43.10;;;16.67;;
75628;SDS011;64213;46.452;16.994;2022-12-18T07:52:04;43.95;;;15.35;;
75628;SDS011;64213;46.452;16.994;2022-12-18T07:55:06;36.50;;;15.75;;
75628;SDS011;64213;46.452;16.994;2022-12-18T07:58:09;39.30;;;14.83;;
75628;SDS011;64213;46.452;16.994;2022-12-18T08:01:11;33.67;;;12.88;;
75628;SDS011;64213;46.452;16.994;2022-12-18T08:04:13;38.05;;;14.10;;
75628;SDS011;64213;46.452;16.994;2022-12-18T08:07:15;31.10;;;12.52;;
75628;SDS011;64213;46.452;16.994;2022-12-18T08:10:18;36.38;;;12.65;;
75628;SDS011;64213;46.452;16.994;2022-12-18T08:13:21;33.93;;;13.83;;
75628;SDS011;64213;46.452;16.994;2022-12-18T08:16:23;32.35;;;13.15;;
75628;SDS011;64213;46.452;16.994;2022-12-18T08:19:25;40.00;;;13.80;;
75628;SDS011;64213;46.452;16.994;2022-12-18T08:22:28;37.70;;;13.77;;
75628;SDS011;64213;46.452;16.994;2022-12-18T08:25:30;36.78;;;14.93;;
75628;SDS011;64213;46.452;16.994;2022-12-18T08:28:32;33.40;;;13.50;;
75628;SDS011;64213;46.452;16.994;2022-12-18T08:31:36;33.60;;;13.10;;
75628;SDS011;64213;46.452;16.994;2022-12-18T08:34:38;27.98;;;11.73;;
75628;SDS011;64213;46.452;16.994;2022-12-18T08:37:40;34.30;;;13.30;;
75628;SDS011;64213;46.452;16.994;2022-12-18T08:40:43;35.53;;;12.77;;
75628;SDS011;64213;46.452;16.994;2022-12-18T08:43:45;31.97;;;12.17;;
75628;SDS011;64213;46.452;16.994;2022-12-18T08:47:06;26.87;;;10.47;;
75628;SDS011;64213;46.452;16.994;2022-12-18T08:50:09;37.33;;;12.32;;
75628;SDS011;64213;46.452;16.994;2022-12-18T08:53:11;33.97;;;12.05;;
75628;SDS011;64213;46.452;16.994;2022-12-18T08:56:13;29.45;;;11.20;;
75628;SDS011;64213;46.452;16.994;2022-12-18T08:59:16;23.37;;;8.43;;
75628;SDS011;64213;46.452;16.994;2022-12-18T09:02:21;26.97;;;9.47;;
75628;SDS011;64213;46.452;16.994;2022-12-18T09:05:23;18.60;;;7.15;;
75628;SDS011;64213;46.452;16.994;2022-12-18T09:08:26;24.30;;;9.02;;
75628;SDS011;64213;46.452;16.994;2022-12-18T09:11:28;21.62;;;8.50;;
75628;SDS011;64213;46.452;16.994;2022-12-18T09:14:31;20.60;;;7.43;;
75628;SDS011;64213;46.452;16.994;2022-12-18T09:17:33;16.63;;;6.57;;
75628;SDS011;64213;46.452;16.994;2022-12-18T09:20:36;13.50;;;5.15;;
75628;SDS011;64213;46.452;16.994;2022-12-18T09:23:39;18.33;;;6.87;;
75628;SDS011;64213;46.452;16.994;2022-12-18T09:26:41;20.10;;;7.05;;
75628;SDS011;64213;46.452;16.994;2022-12-18T09:29:47;21.33;;;7.23;;
75628;SDS011;64213;46.452;16.994;2022-12-18T09:32:49;12.80;;;5.20;;
75628;SDS011;64213;46.452;16.994;2022-12-18T09:35:51;17.95;;;5.68;;
75628;SDS011;64213;46.452;16.994;2022-12-18T09:38:53;17.58;;;5.50;;
75628;SDS011;64213;46.452;16.994;2022-12-18T09:41:57;21.80;;;7.12;;
75628;SDS011;64213;46.452;16.994;2022-12-18T09:45:00;24.53;;;5.27;;
75628;SDS011;64213;46.452;16.994;2022-12-18T09:48:04;19.67;;;6.07;;
75628;SDS011;64213;46.452;16.994;2022-12-18T09:51:19;18.67;;;8.50;;
75628;SDS011;64213;46.452;16.994;2022-12-18T09:54:35;17.70;;;5.93;;
75628;SDS011;64213;46.452;16.994;2022-12-18T09:57:47;20.95;;;7.22;;
75628;SDS011;64213;46.452;16.994;2022-12-18T10:00:53;19.83;;;7.70;;
75628;SDS011;64213;46.452;16.994;2022-12-18T10:03:56;20.87;;;7.93;;
75628;SDS011;64213;46.452;16.994;2022-12-18T10:07:03;17.62;;;7.30;;
75628;SDS011;64213;46.452;16.994;2022-12-18T10:14:20;20.10;;;7.28;;
75628;SDS011;64213;46.452;16.994;2022-12-18T10:17:33;22.70;;;7.47;;
75628;SDS011;64213;46.452;16.994;2022-12-18T10:20:43;21.47;;;6.97;;
75628;SDS011;64213;46.452;16.994;2022-12-18T10:24:01;21.20;;;7.82;;
75628;SDS011;64213;46.452;16.994;2022-12-18T10:27:16;20.15;;;7.03;;
75628;SDS011;64213;46.452;16.994;2022-12-18T10:30:23;21.05;;;8.27;;
75628;SDS011;64213;46.452;16.994;2022-12-18T10:33:28;21.70;;;8.97;;
75628;SDS011;64213;46.452;16.994;2022-12-18T10:36:31;17.50;;;7.43;;
75628;SDS011;64213;46.452;16.994;2022-12-18T10:39:33;16.85;;;7.22;;
75628;SDS011;64213;46.452;16.994;2022-12-18T10:42:35;22.17;;;8.32;;
75628;SDS011;64213;46.452;16.994;2022-12-18T10:45:38;21.87;;;8.48;;
75628;SDS011;64213;46.452;16.994;2022-12-18T10:48:48;20.33;;;7.93;;
75628;SDS011;64213;46.452;16.994;2022-12-18T10:55:29;21.75;;;8.27;;
75628;SDS011;64213;46.452;16.994;2022-12-18T10:58:35;20.20;;;8.35;;
75628;SDS011;64213;46.452;16.994;2022-12-18T11:04:51;18.57;;;7.33;;
75628;SDS011;64213;46.452;16.994;2022-12-18T11:07:54;21.37;;;7.93;;
75628;SDS011;64213;46.452;16.994;2022-12-18T11:10:57;22.23;;;8.35;;
75628;SDS011;64213;46.452;16.994;2022-12-18T11:14:04;22.48;;;8.30;;
75628;SDS011;64213;46.452;16.994;2022-12-18T11:17:18;21.90;;;7.93;;
75628;SDS011;64213;46.452;16.994;2022-12-18T11:20:30;19.77;;;8.27;;
75628;SDS011;64213;46.452;16.994;2022-12-18T11:23:35;16.00;;;6.13;;
75628;SDS011;64213;46.452;16.994;2022-12-18T11:26:39;23.17;;;8.10;;
75628;SDS011;64213;46.452;16.994;2022-12-18T11:29:41;20.33;;;7.82;;
75628;SDS011;64213;46.452;16.994;2022-12-18T11:35:59;15.10;;;5.47;;
75628;SDS011;64213;46.452;16.994;2022-12-18T11:45:51;12.88;;;4.62;;
75628;SDS011;64213;46.452;16.994;2022-12-18T11:49:15;15.60;;;4.80;;
75628;SDS011;64213;46.452;16.994;2022-12-18T11:52:32;16.23;;;5.47;;
75628;SDS011;64213;46.452;16.994;2022-12-18T11:55:41;15.77;;;5.10;;
75628;SDS011;64213;46.452;16.994;2022-12-18T12:05:37;16.50;;;5.68;;
75628;SDS011;64213;46.452;16.994;2022-12-18T12:21:41;14.25;;;3.72;;
75628;SDS011;64213;46.452;16.994;2022-12-18T12:24:53;12.73;;;3.80;;
75628;SDS011;64213;46.452;16.994;2022-12-18T12:35:58;12.32;;;4.35;;
75628;SDS011;64213;46.452;16.994;2022-12-18T12:39:17;10.93;;;3.30;;
75628;SDS011;64213;46.452;16.994;2022-12-18T12:42:33;13.70;;;3.60;;
75628;SDS011;64213;46.452;16.994;2022-12-18T12:46:03;11.87;;;3.57;;
75628;SDS011;64213;46.452;16.994;2022-12-18T12:49:14;12.90;;;3.90;;
75628;SDS011;64213;46.452;16.994;2022-12-18T12:55:28;13.38;;;4.03;;
75628;SDS011;64213;46.452;16.994;2022-12-18T13:01:59;12.77;;;4.10;;
75628;SDS011;64213;46.452;16.994;2022-12-18T13:05:34;16.45;;;4.82;;
75628;SDS011;64213;46.452;16.994;2022-12-18T13:08:57;15.88;;;4.30;;
75628;SDS011;64213;46.452;16.994;2022-12-18T13:12:07;13.55;;;4.20;;
75628;SDS011;64213;46.452;16.994;2022-12-18T13:18:40;13.53;;;4.40;;
75628;SDS011;64213;46.452;16.994;2022-12-18T13:22:31;15.02;;;4.95;;
75628;SDS011;64213;46.452;16.994;2022-12-18T13:25:37;14.60;;;4.87;;
75628;SDS011;64213;46.452;16.994;2022-12-18T13:35:37;11.90;;;4.23;;
75628;SDS011;64213;46.452;16.994;2022-12-18T13:38:21;16.80;;;5.20;;
75628;SDS011;64213;46.452;16.994;2022-12-18T13:41:33;14.87;;;5.25;;
75628;SDS011;64213;46.452;16.994;2022-12-18T13:44:36;16.25;;;4.95;;
75628;SDS011;64213;46.452;16.994;2022-12-18T13:47:42;13.00;;;4.33;;
75628;SDS011;64213;46.452;16.994;2022-12-18T13:51:19;15.37;;;4.90;;
75628;SDS011;64213;46.452;16.994;2022-12-18T13:54:37;17.70;;;5.20;;
75628;SDS011;64213;46.452;16.994;2022-12-18T13:57:42;13.18;;;4.22;;
75628;SDS011;64213;46.452;16.994;2022-12-18T14:00:44;12.63;;;3.75;;
75628;SDS011;64213;46.452;16.994;2022-12-18T14:03:47;14.60;;;4.80;;
75628;SDS011;64213;46.452;16.994;2022-12-18T14:06:52;14.03;;;4.60;;
75628;SDS011;64213;46.452;16.994;2022-12-18T14:09:58;14.23;;;4.65;;
75628;SDS011;64213;46.452;16.994;2022-12-18T14:13:32;14.80;;;5.32;;
75628;SDS011;64213;46.452;16.994;2022-12-18T14:16:39;16.65;;;5.25;;
75628;SDS011;64213;46.452;16.994;2022-12-18T14:19:47;17.83;;;5.50;;
75628;SDS011;64213;46.452;16.994;2022-12-18T14:22:51;13.73;;;4.63;;
75628;SDS011;64213;46.452;16.994;2022-12-18T14:25:54;13.57;;;4.65;;
75628;SDS011;64213;46.452;16.994;2022-12-18T14:29:16;13.95;;;5.18;;
75628;SDS011;64213;46.452;16.994;2022-12-18T14:32:22;15.43;;;5.18;;
75628;SDS011;64213;46.452;16.994;2022-12-18T14:35:24;15.73;;;5.83;;
75628;SDS011;64213;46.452;16.994;2022-12-18T14:41:30;15.45;;;6.10;;
75628;SDS011;64213;46.452;16.994;2022-12-18T14:44:34;18.42;;;6.53;;
75628;SDS011;64213;46.452;16.994;2022-12-18T14:47:56;19.87;;;7.40;;
75628;SDS011;64213;46.452;16.994;2022-12-18T14:51:03;17.47;;;6.50;;
75628;SDS011;64213;46.452;16.994;2022-12-18T14:54:14;16.80;;;6.43;;
75628;SDS011;64213;46.452;16.994;2022-12-18T14:57:32;19.35;;;6.95;;
75628;SDS011;64213;46.452;16.994;2022-12-18T15:00:41;19.12;;;7.05;;
75628;SDS011;64213;46.452;16.994;2022-12-18T15:03:47;22.87;;;8.80;;
75628;SDS011;64213;46.452;16.994;2022-12-18T15:06:50;21.07;;;8.70;;
75628;SDS011;64213;46.452;16.994;2022-12-18T15:10:11;24.43;;;9.30;;
75628;SDS011;64213;46.452;16.994;2022-12-18T15:13:20;25.42;;;8.98;;
75628;SDS011;64213;46.452;16.994;2022-12-18T15:16:26;27.80;;;10.45;;
75628;SDS011;64213;46.452;16.994;2022-12-18T15:19:39;28.90;;;11.98;;
75628;SDS011;64213;46.452;16.994;2022-12-18T15:22:43;25.77;;;10.93;;
75628;SDS011;64213;46.452;16.994;2022-12-18T15:25:55;30.97;;;11.97;;
75628;SDS011;64213;46.452;16.994;2022-12-18T15:29:00;30.90;;;13.48;;
75628;SDS011;64213;46.452;16.994;2022-12-18T15:32:05;29.00;;;9.95;;
75628;SDS011;64213;46.452;16.994;2022-12-18T15:35:25;18.37;;;7.18;;
75628;SDS011;64213;46.452;16.994;2022-12-18T15:38:28;21.97;;;8.90;;
75628;SDS011;64213;46.452;16.994;2022-12-18T15:41:34;22.92;;;8.57;;
75628;SDS011;64213;46.452;16.994;2022-12-18T15:44:38;28.85;;;10.02;;
75628;SDS011;64213;46.452;16.994;2022-12-18T15:47:41;20.55;;;9.02;;
75628;SDS011;64213;46.452;16.994;2022-12-18T15:50:45;26.67;;;9.63;;
75628;SDS011;64213;46.452;16.994;2022-12-18T15:53:49;20.47;;;7.93;;
75628;SDS011;64213;46.452;16.994;2022-12-18T15:56:54;22.30;;;8.73;;
75628;SDS011;64213;46.452;16.994;2022-12-18T16:00:16;25.67;;;9.45;;
75628;SDS011;64213;46.452;16.994;2022-12-18T16:03:19;34.38;;;10.90;;
75628;SDS011;64213;46.452;16.994;2022-12-18T16:06:22;20.60;;;8.55;;
75628;SDS011;64213;46.452;16.994;2022-12-18T16:09:25;24.03;;;8.83;;
75628;SDS011;64213;46.452;16.994;2022-12-18T16:12:31;24.48;;;7.45;;
75628;SDS011;64213;46.452;16.994;2022-12-18T16:15:36;16.42;;;7.05;;
75628;SDS011;64213;46.452;16.994;2022-12-18T16:18:39;21.17;;;7.62;;
75628;SDS011;64213;46.452;16.994;2022-12-18T16:21:44;23.52;;;8.15;;
75628;SDS011;64213;46.452;16.994;2022-12-18T16:24:49;27.17;;;9.10;;
75628;SDS011;64213;46.452;16.994;2022-12-18T16:27:56;24.15;;;9.65;;
75628;SDS011;64213;46.452;16.994;2022-12-18T16:31:00;26.65;;;9.73;;
75628;SDS011;64213;46.452;16.994;2022-12-18T16:37:37;28.05;;;9.35;;
75628;SDS011;64213;46.452;16.994;2022-12-18T16:40:41;24.03;;;9.37;;
75628;SDS011;64213;46.452;16.994;2022-12-18T16:44:04;31.25;;;11.40;;
75628;SDS011;64213;46.452;16.994;2022-12-18T16:47:06;27.70;;;10.77;;
75628;SDS011;64213;46.452;16.994;2022-12-18T16:50:12;29.50;;;10.23;;
75628;SDS011;64213;46.452;16.994;2022-12-18T16:53:15;25.70;;;10.52;;
75628;SDS011;64213;46.452;16.994;2022-12-18T16:56:19;24.30;;;9.37;;
75628;SDS011;64213;46.452;16.994;2022-12-18T16:59:24;28.25;;;10.15;;
75628;SDS011;64213;46.452;16.994;2022-12-18T17:02:29;24.95;;;10.65;;
75628;SDS011;64213;46.452;16.994;2022-12-18T17:05:33;24.67;;;10.02;;
75628;SDS011;64213;46.452;16.994;2022-12-18T17:08:37;24.60;;;9.85;;
75628;SDS011;64213;46.452;16.994;2022-12-18T17:11:42;27.47;;;10.50;;
75628;SDS011;64213;46.452;16.994;2022-12-18T17:14:49;27.67;;;9.48;;
75628;SDS011;64213;46.452;16.994;2022-12-18T17:17:52;29.02;;;9.48;;
75628;SDS011;64213;46.452;16.994;2022-12-18T17:24:20;27.92;;;9.98;;
75628;SDS011;64213;46.452;16.994;2022-12-18T17:27:24;29.43;;;10.27;;
75628;SDS011;64213;46.452;16.994;2022-12-18T17:30:27;31.87;;;10.63;;
75628;SDS011;64213;46.452;16.994;2022-12-18T17:33:31;30.52;;;11.38;;
75628;SDS011;64213;46.452;16.994;2022-12-18T17:36:37;33.92;;;11.75;;
75628;SDS011;64213;46.452;16.994;2022-12-18T17:39:40;32.15;;;11.70;;
75628;SDS011;64213;46.452;16.994;2022-12-18T17:42:45;30.37;;;12.03;;
75628;SDS011;64213;46.452;16.994;2022-12-18T17:45:49;29.92;;;12.02;;
75628;SDS011;64213;46.452;16.994;2022-12-18T17:48:56;40.30;;;14.85;;
75628;SDS011;64213;46.452;16.994;2022-12-18T17:52:00;56.80;;;20.95;;
75628;SDS011;64213;46.452;16.994;2022-12-18T17:55:03;44.03;;;16.95;;
75628;SDS011;64213;46.452;16.994;2022-12-18T17:58:07;40.27;;;16.57;;
75628;SDS011;64213;46.452;16.994;2022-12-18T18:01:14;41.33;;;15.45;;
75628;SDS011;64213;46.452;16.994;2022-12-18T18:04:19;39.72;;;13.95;;
75628;SDS011;64213;46.452;16.994;2022-12-18T18:07:21;41.92;;;15.20;;
75628;SDS011;64213;46.452;16.994;2022-12-18T18:10:24;31.27;;;12.43;;
75628;SDS011;64213;46.452;16.994;2022-12-18T18:13:29;36.30;;;13.40;;
75628;SDS011;64213;46.452;16.994;2022-12-18T18:16:51;35.80;;;14.40;;
75628;SDS011;64213;46.452;16.994;2022-12-18T18:19:56;39.60;;;13.65;;
75628;SDS011;64213;46.452;16.994;2022-12-18T18:22:58;36.92;;;14.90;;
75628;SDS011;64213;46.452;16.994;2022-12-18T18:26:05;31.92;;;14.02;;
75628;SDS011;64213;46.452;16.994;2022-12-18T18:29:12;32.80;;;13.17;;
75628;SDS011;64213;46.452;16.994;2022-12-18T18:32:21;29.80;;;12.75;;
75628;SDS011;64213;46.452;16.994;2022-12-18T18:35:24;33.63;;;13.32;;
75628;SDS011;64213;46.452;16.994;2022-12-18T18:38:47;34.70;;;13.30;;
75628;SDS011;64213;46.452;16.994;2022-12-18T18:41:51;32.13;;;13.32;;
75628;SDS011;64213;46.452;16.994;2022-12-18T18:44:54;30.57;;;12.63;;
75628;SDS011;64213;46.452;16.994;2022-12-18T18:47:58;32.65;;;12.75;;
75628;SDS011;64213;46.452;16.994;2022-12-18T18:51:02;37.97;;;14.80;;
75628;SDS011;64213;46.452;16.994;2022-12-18T18:54:08;36.55;;;14.15;;
75628;SDS011;64213;46.452;16.994;2022-12-18T18:57:12;31.98;;;12.73;;
75628;SDS011;64213;46.452;16.994;2022-12-18T19:00:27;29.57;;;11.27;;
75628;SDS011;64213;46.452;16.994;2022-12-18T19:03:30;29.60;;;11.55;;
75628;SDS011;64213;46.452;16.994;2022-12-18T19:06:33;32.42;;;13.38;;
75628;SDS011;64213;46.452;16.994;2022-12-18T19:09:36;24.85;;;11.65;;
75628;SDS011;64213;46.452;16.994;2022-12-18T19:12:39;32.03;;;13.57;;
75628;SDS011;64213;46.452;16.994;2022-12-18T19:16:04;29.60;;;11.35;;
75628;SDS011;64213;46.452;16.994;2022-12-18T19:19:10;27.08;;;10.73;;
75628;SDS011;64213;46.452;16.994;2022-12-18T19:22:14;25.15;;;10.27;;
75628;SDS011;64213;46.452;16.994;2022-12-18T19:25:17;31.00;;;11.50;;
75628;SDS011;64213;46.452;16.994;2022-12-18T19:28:21;29.93;;;11.23;;
75628;SDS011;64213;46.452;16.994;2022-12-18T19:31:27;27.13;;;9.85;;
75628;SDS011;64213;46.452;16.994;2022-12-18T19:34:36;26.30;;;10.20;;
75628;SDS011;64213;46.452;16.994;2022-12-18T19:37:40;20.90;;;8.82;;
75628;SDS011;64213;46.452;16.994;2022-12-18T19:40:43;29.17;;;11.20;;